Time,TemperatureF,DewpointF,PressureIn,WindDirection,WindDirectionDegrees,WindSpeedMPH,WindSpeedGustMPH,Humidity,HourlyPrecipIn,Conditions,Clouds,dailyrainin,SoftwareType,DateUTC
2013-05-15 00:01:00,59.6,48.2,30.07,WSW,240,0.0,0.0,66,0.00,CLR,,0.00,WeatherDisplay:10.37,2013-05-15 04:01:00,
2013-05-15 00:06:00,59.4,48.4,30.07,WSW,240,0.0,0.0,67,0.00,CLR,,0.00,WeatherDisplay:10.37,2013-05-15 04:06:00,
2013-05-15 00:11:00,59.2,48.2,30.06,WSW,240,1.2,0.0,67,0.00,CLR,,0.00,WeatherDisplay:10.37,2013-05-15 04:11:00,
2013-05-15 00:16:00,59.0,48.1,30.06,WSW,240,0.0,0.0,67,0.00,CLR,,0.00,WeatherDisplay:10.37,2013-05-15 04:16:00,
2013-05-15 00:21:00,59.0,48.4,30.06,WSW,240,0.0,0.0,68,0.00,CLR,,0.00,WeatherDisplay:10.37,2013-05-15 04:21:00,
2013-05-15 00:26:00,59.0,48.4,30.06,WSW,240,0.0,0.0,68,0.00,CLR,,0.00,WeatherDisplay:10.37,2013-05-15 04:26:00,
2013-05-15 00:31:00,59.0,48.4,30.06,West,269,4.6,4.6,68,0.00,CLR,,0.00,WeatherDisplay:10.37,2013-05-15 04:31:00,
2013-05-15 00:36:00,59.0,48.4,30.06,West,269,0.0,0.0,68,0.00,CLR,,0.00,WeatherDisplay:10.37,2013-05-15 04:36:00,
2013-05-15 00:41:00,59.0,48.4,30.06,WSW,244,3.5,3.5,68,0.00,CLR,,0.00,WeatherDisplay:10.37,2013-05-15 04:41:00,
2013-05-15 00:46:00,59.0,48.4,30.06,WSW,242,0.0,0.0,68,0.00,CLR,,0.00,WeatherDisplay:10.37,2013-05-15 04:46:00,
2013-05-15 00:51:00,59.0,48.4,30.06,WSW,242,0.0,0.0,68,0.00,CLR,,0.00,WeatherDisplay:10.37,2013-05-15 04:51:00,
2013-05-15 00:56:00,59.0,48.8,30.05,SW,217,5.8,5.8,69,0.00,CLR,,0.00,WeatherDisplay:10.37,2013-05-15 04:56:00,
2013-05-15 01:01:00,59.0,48.8,30.05,WSW,249,5.8,5.8,69,0.00,CLR,,0.00,WeatherDisplay:10.37,2013-05-15 05:01:00,
2013-05-15 01:06:00,59.1,48.9,30.05,WSW,247,3.5,3.5,69,0.00,CLR,,0.00,WeatherDisplay:10.37,2013-05-15 05:06:00,
2013-05-15 01:11:00,59.4,49.2,30.05,SW,225,5.8,5.8,69,0.00,CLR,,0.00,WeatherDisplay:10.37,2013-05-15 05:11:00,
2013-05-15 01:16:00,59.6,49.4,30.05,WSW,250,5.8,5.8,69,0.00,CLR,,0.00,WeatherDisplay:10.37,2013-05-15 05:16:00,
2013-05-15 01:21:00,59.8,49.6,30.05,WSW,252,5.8,5.8,69,0.00,CLR,,0.00,WeatherDisplay:10.37,2013-05-15 05:21:00,
2013-05-15 01:26:00,60.0,49.8,30.05,SW,234,6.9,6.9,69,0.00,CLR,,0.00,WeatherDisplay:10.37,2013-05-15 05:26:00,
2013-05-15 01:31:00,60.2,49.6,30.05,WSW,242,11.5,11.5,68,0.00,CLR,,0.00,WeatherDisplay:10.37,2013-05-15 05:31:00,
2013-05-15 01:36:00,60.3,50.1,30.04,WSW,252,10.4,10.4,69,0.00,CLR,,0.00,WeatherDisplay:10.37,2013-05-15 05:36:00,
2013-05-15 01:41:00,60.3,50.1,30.04,SW,219,6.0,6.0,69,0.00,CLR,,0.00,WeatherDisplay:10.37,2013-05-15 05:41:00,
2013-05-15 01:46:00,60.3,50.1,30.04,WSW,257,9.0,9.0,69,0.00,CLR,,0.00,WeatherDisplay:10.37,2013-05-15 05:46:00,
2013-05-15 01:51:00,60.2,50.0,30.04,WSW,252,6.9,6.9,69,0.00,CLR,,0.00,WeatherDisplay:10.37,2013-05-15 05:51:00,
2013-05-15 01:56:00,60.2,50.0,30.04,WSW,244,10.4,10.4,69,0.00,CLR,,0.00,WeatherDisplay:10.37,2013-05-15 05:56:00,
2013-05-15 02:01:00,60.1,50.3,30.03,WSW,238,9.2,9.2,70,0.00,CLR,,0.00,WeatherDisplay:10.37,2013-05-15 06:01:00,
2013-05-15 02:06:00,60.0,50.2,30.04,SW,234,4.6,4.6,70,0.00,CLR,,0.00,WeatherDisplay:10.37,2013-05-15 06:06:00,
2013-05-15 02:11:00,60.0,50.2,30.04,WSW,240,5.8,5.8,70,0.00,CLR,,0.00,WeatherDisplay:10.37,2013-05-15 06:11:00,
2013-05-15 02:16:00,59.8,50.4,30.04,WSW,244,4.6,4.6,71,0.00,CLR,,0.00,WeatherDisplay:10.37,2013-05-15 06:16:00,
2013-05-15 02:21:00,59.8,50.4,30.04,WSW,246,3.5,3.5,71,0.00,CLR,,0.00,WeatherDisplay:10.37,2013-05-15 06:21:00,
2013-05-15 02:26:00,59.6,50.2,30.03,WSW,242,6.0,6.0,71,0.00,CLR,,0.00,WeatherDisplay:10.37,2013-05-15 06:26:00,
2013-05-15 02:31:00,59.5,50.5,30.03,WSW,241,6.9,6.9,72,0.00,CLR,,0.00,WeatherDisplay:10.37,2013-05-15 06:31:00,
2013-05-15 02:36:00,59.3,50.3,30.03,West,264,6.0,6.0,72,0.00,CLR,,0.00,WeatherDisplay:10.37,2013-05-15 06:36:00,
2013-05-15 02:41:00,59.2,50.2,30.02,SW,221,10.4,10.4,72,0.00,CLR,,0.00,WeatherDisplay:10.37,2013-05-15 06:41:00,
2013-05-15 02:46:00,59.1,50.5,30.02,WSW,250,9.2,9.2,73,0.00,CLR,,0.00,WeatherDisplay:10.37,2013-05-15 06:46:00,
2013-05-15 02:51:00,59.0,50.4,30.02,WSW,237,6.9,6.9,73,0.00,CLR,,0.00,WeatherDisplay:10.37,2013-05-15 06:51:00,
2013-05-15 02:56:00,59.0,50.4,30.03,SSW,205,9.0,9.0,73,0.00,CLR,,0.00,WeatherDisplay:10.37,2013-05-15 06:56:00,
2013-05-15 03:01:00,59.0,50.7,30.02,SW,225,5.8,5.8,74,0.00,CLR,,0.00,WeatherDisplay:10.37,2013-05-15 07:01:00,
2013-05-15 03:06:00,59.0,50.7,30.03,WSW,249,5.8,5.8,74,0.00,CLR,,0.00,WeatherDisplay:10.37,2013-05-15 07:06:00,
2013-05-15 03:11:00,59.0,50.7,30.03,WSW,240,6.0,6.0,74,0.00,CLR,,0.00,WeatherDisplay:10.37,2013-05-15 07:11:00,
2013-05-15 03:16:00,59.0,50.7,30.03,SW,236,5.8,5.8,74,0.00,CLR,,0.00,WeatherDisplay:10.37,2013-05-15 07:16:00,
2013-05-15 03:21:00,58.8,50.5,30.03,WSW,246,3.5,3.5,74,0.00,CLR,,0.00,WeatherDisplay:10.37,2013-05-15 07:21:00,
2013-05-15 03:26:00,58.6,50.7,30.03,SW,219,4.6,4.6,75,0.00,CLR,,0.00,WeatherDisplay:10.37,2013-05-15 07:26:00,
2013-05-15 03:31:00,58.5,50.6,30.02,WSW,246,4.6,4.6,75,0.00,CLR,,0.00,WeatherDisplay:10.37,2013-05-15 07:31:00,
2013-05-15 03:36:00,58.4,50.9,30.02,SW,223,9.2,9.2,76,0.00,CLR,,0.00,WeatherDisplay:10.37,2013-05-15 07:36:00,
2013-05-15 03:41:00,58.3,50.8,30.03,SW,225,4.0,4.0,76,0.00,CLR,,0.00,WeatherDisplay:10.37,2013-05-15 07:41:00,
2013-05-15 03:46:00,58.4,50.9,30.03,SW,221,3.5,3.5,76,0.00,CLR,,0.00,WeatherDisplay:10.37,2013-05-15 07:46:00,
2013-05-15 03:51:00,58.3,51.1,30.03,SW,229,4.6,4.6,77,0.00,CLR,,0.00,WeatherDisplay:10.37,2013-05-15 07:51:00,
2013-05-15 03:56:00,58.3,51.1,30.03,WSW,242,5.0,5.0,77,0.00,CLR,,0.00,WeatherDisplay:10.37,2013-05-15 07:56:00,
2013-05-15 04:01:00,58.2,51.0,30.02,WSW,238,5.8,5.8,77,0.00,CLR,,0.00,WeatherDisplay:10.37,2013-05-15 08:01:00,
2013-05-15 04:06:00,58.2,51.0,30.02,SW,236,5.0,5.0,77,0.00,CLR,,0.00,WeatherDisplay:10.37,2013-05-15 08:06:00,
2013-05-15 04:12:00,58.2,51.0,30.03,WSW,248,5.0,5.0,77,0.00,CLR,,0.00,WeatherDisplay:10.37,2013-05-15 08:12:00,
2013-05-15 04:17:00,58.2,51.4,30.02,WSW,242,6.0,6.0,78,0.00,CLR,,0.00,WeatherDisplay:10.37,2013-05-15 08:17:00,
2013-05-15 04:22:00,58.2,51.4,30.02,SSW,206,8.1,8.1,78,0.00,CLR,,0.00,WeatherDisplay:10.37,2013-05-15 08:22:00,
2013-05-15 04:27:00,58.2,51.4,30.02,SSW,192,6.9,6.9,78,0.00,CLR,,0.00,WeatherDisplay:10.37,2013-05-15 08:27:00,
2013-05-15 04:32:00,58.2,51.4,30.03,SW,221,6.9,6.9,78,0.00,CLR,,0.00,WeatherDisplay:10.37,2013-05-15 08:32:00,
2013-05-15 04:37:00,58.3,51.5,30.02,SW,224,6.9,6.9,78,0.00,CLR,,0.00,WeatherDisplay:10.37,2013-05-15 08:37:00,
2013-05-15 04:42:00,58.4,51.6,30.02,WSW,243,6.9,6.9,78,0.00,CLR,,0.00,WeatherDisplay:10.37,2013-05-15 08:42:00,
2013-05-15 04:47:00,58.4,51.6,30.02,South,187,5.8,5.8,78,0.00,CLR,,0.00,WeatherDisplay:10.37,2013-05-15 08:47:00,
2013-05-15 04:52:00,58.4,51.6,30.03,South,191,6.9,6.9,78,0.00,CLR,,0.00,WeatherDisplay:10.37,2013-05-15 08:52:00,
2013-05-15 04:57:00,58.5,52.0,30.03,SW,236,9.2,9.2,79,0.00,CLR,,0.00,WeatherDisplay:10.37,2013-05-15 08:57:00,
2013-05-15 05:02:00,58.5,52.0,30.03,SW,214,4.6,4.6,79,0.00,CLR,,0.00,WeatherDisplay:10.37,2013-05-15 09:02:00,
2013-05-15 05:07:00,58.5,52.0,30.03,SW,215,3.5,3.5,79,0.00,CLR,,0.00,WeatherDisplay:10.37,2013-05-15 09:07:00,
2013-05-15 05:12:00,58.4,51.9,30.03,SW,233,4.6,4.6,79,0.00,CLR,,0.00,WeatherDisplay:10.37,2013-05-15 09:12:00,
2013-05-15 05:17:00,58.4,51.9,30.03,SSW,200,3.5,3.5,79,0.00,CLR,,0.00,WeatherDisplay:10.37,2013-05-15 09:17:00,
2013-05-15 05:22:00,58.3,51.8,30.03,SW,221,3.5,3.5,79,0.00,CLR,,0.00,WeatherDisplay:10.37,2013-05-15 09:22:00,
2013-05-15 05:27:00,58.3,51.8,30.03,SW,227,3.5,3.5,79,0.00,CLR,,0.00,WeatherDisplay:10.37,2013-05-15 09:27:00,
2013-05-15 05:32:00,58.2,51.7,30.03,WSW,241,4.6,4.6,79,0.00,CLR,,0.00,WeatherDisplay:10.37,2013-05-15 09:32:00,
2013-05-15 05:37:00,58.1,52.0,30.04,SSW,213,0.0,0.0,80,0.00,CLR,,0.00,WeatherDisplay:10.37,2013-05-15 09:37:00,
2013-05-15 05:42:00,58.0,51.9,30.04,SSW,206,1.0,1.0,80,0.00,CLR,,0.00,WeatherDisplay:10.37,2013-05-15 09:42:00,
2013-05-15 05:47:00,57.9,51.8,30.04,SSW,206,1.2,0.0,80,0.00,CLR,,0.00,WeatherDisplay:10.37,2013-05-15 09:47:00,
2013-05-15 05:52:00,57.7,51.6,30.04,SSW,206,3.5,3.5,80,0.00,CLR,,0.00,WeatherDisplay:10.37,2013-05-15 09:52:00,
2013-05-15 05:57:00,57.5,51.4,30.04,SSW,206,0.0,0.0,80,0.00,CLR,,0.00,WeatherDisplay:10.37,2013-05-15 09:57:00,
2013-05-15 06:02:00,57.4,51.6,30.05,NW,305,0.0,0.0,81,0.00,CLR,,0.00,WeatherDisplay:10.37,2013-05-15 10:02:00,
2013-05-15 06:07:00,57.2,51.4,30.04,North,350,0.0,0.0,81,0.00,CLR,,0.00,WeatherDisplay:10.37,2013-05-15 10:07:00,
2013-05-15 06:12:00,57.0,51.6,30.04,North,350,0.0,0.0,82,0.00,CLR,,0.00,WeatherDisplay:10.37,2013-05-15 10:12:00,
2013-05-15 06:17:00,56.9,51.5,30.04,North,350,0.0,0.0,82,0.00,CLR,,0.00,WeatherDisplay:10.37,2013-05-15 10:17:00,
2013-05-15 06:22:00,56.7,51.3,30.04,North,350,0.0,0.0,82,0.00,CLR,,0.00,WeatherDisplay:10.37,2013-05-15 10:22:00,
2013-05-15 06:27:00,56.5,51.4,30.04,North,351,0.0,0.0,83,0.00,CLR,,0.00,WeatherDisplay:10.37,2013-05-15 10:27:00,
2013-05-15 06:32:00,56.4,51.3,30.04,North,351,0.0,0.0,83,0.00,CLR,,0.00,WeatherDisplay:10.37,2013-05-15 10:32:00,
2013-05-15 06:37:00,56.3,51.2,30.04,North,351,1.2,0.0,83,0.00,CLR,,0.00,WeatherDisplay:10.37,2013-05-15 10:37:00,
2013-05-15 06:42:00,56.1,51.0,30.05,North,351,0.0,0.0,83,0.00,CLR,,0.00,WeatherDisplay:10.37,2013-05-15 10:42:00,
2013-05-15 06:47:00,56.0,51.2,30.05,North,351,0.0,0.0,84,0.00,CLR,,0.00,WeatherDisplay:10.37,2013-05-15 10:47:00,
2013-05-15 06:52:00,55.9,51.1,30.05,North,350,0.0,0.0,84,0.00,CLR,,0.00,WeatherDisplay:10.37,2013-05-15 10:52:00,
2013-05-15 06:57:00,55.8,51.4,30.05,WSW,249,4.6,4.6,85,0.00,CLR,,0.00,WeatherDisplay:10.37,2013-05-15 10:57:00,
2013-05-15 07:02:00,55.9,51.8,30.05,WSW,249,2.3,2.3,86,0.00,CLR,,0.00,WeatherDisplay:10.37,2013-05-15 11:02:00,
2013-05-15 07:07:00,56.2,52.1,30.05,SW,236,1.2,0.0,86,0.00,CLR,,0.00,WeatherDisplay:10.37,2013-05-15 11:07:00,
2013-05-15 07:13:00,56.6,52.5,30.05,SW,236,0.0,0.0,86,0.00,CLR,,0.00,WeatherDisplay:10.37,2013-05-15 11:13:00,
2013-05-15 07:18:00,57.1,52.6,30.05,SW,236,0.0,0.0,85,0.00,CLR,,0.00,WeatherDisplay:10.37,2013-05-15 11:18:00,
2013-05-15 07:23:00,57.6,53.1,30.05,SSW,209,0.0,0.0,85,0.00,CLR,,0.00,WeatherDisplay:10.37,2013-05-15 11:23:00,
2013-05-15 07:28:00,58.0,53.2,30.05,SSW,209,3.5,3.5,84,0.00,CLR,,0.00,WeatherDisplay:10.37,2013-05-15 11:28:00,
2013-05-15 07:33:00,58.5,53.7,30.05,SSW,209,3.5,3.5,84,0.00,CLR,,0.00,WeatherDisplay:10.37,2013-05-15 11:33:00,
2013-05-15 07:39:00,59.0,53.8,30.05,SW,225,4.6,4.6,83,0.00,CLR,,0.00,WeatherDisplay:10.37,2013-05-15 11:39:00,
2013-05-15 07:44:00,59.3,53.8,30.05,WSW,248,3.5,3.5,82,0.00,CLR,,0.00,WeatherDisplay:10.37,2013-05-15 11:44:00,
2013-05-15 07:49:00,59.8,54.3,30.05,WSW,245,6.0,6.0,82,0.00,CLR,,0.00,WeatherDisplay:10.37,2013-05-15 11:49:00,
2013-05-15 07:54:00,60.2,54.3,30.05,WSW,245,5.0,5.0,81,0.00,CLR,,0.00,WeatherDisplay:10.37,2013-05-15 11:54:00,
2013-05-15 08:00:00,60.7,54.8,30.05,SSW,213,3.5,3.5,81,0.00,CLR,,0.00,WeatherDisplay:10.37,2013-05-15 12:00:00,
2013-05-15 08:05:00,61.1,55.2,30.05,WSW,257,5.0,5.0,81,0.00,CLR,,0.00,WeatherDisplay:10.37,2013-05-15 12:05:00,
2013-05-15 08:10:00,61.5,55.3,30.05,WSW,239,8.1,8.1,80,0.00,CLR,,0.00,WeatherDisplay:10.37,2013-05-15 12:10:00,
2013-05-15 08:15:00,61.9,55.3,30.05,WSW,239,9.2,9.2,79,0.00,CLR,,0.00,WeatherDisplay:10.37,2013-05-15 12:15:00,
2013-05-15 08:21:00,62.3,55.7,30.05,West,265,9.0,9.0,79,0.00,CLR,,0.00,WeatherDisplay:10.37,2013-05-15 12:21:00,
2013-05-15 08:26:00,62.7,55.7,30.05,WSW,256,9.2,9.2,78,0.00,CLR,,0.00,WeatherDisplay:10.37,2013-05-15 12:26:00,
2013-05-15 08:31:00,63.2,56.2,30.06,SW,235,4.6,4.6,78,0.00,CLR,,0.00,WeatherDisplay:10.37,2013-05-15 12:31:00,
2013-05-15 08:37:00,63.6,56.3,30.06,WSW,252,6.9,6.9,77,0.00,CLR,,0.00,WeatherDisplay:10.37,2013-05-15 12:37:00,
2013-05-15 08:42:00,64.0,56.6,30.06,WSW,244,5.8,5.8,77,0.00,CLR,,0.00,WeatherDisplay:10.37,2013-05-15 12:42:00,
2013-05-15 08:47:00,64.5,56.8,30.06,WSW,249,5.8,5.8,76,0.00,CLR,,0.00,WeatherDisplay:10.37,2013-05-15 12:47:00,
2013-05-15 08:52:00,64.8,57.1,30.06,WSW,244,8.1,8.1,76,0.00,CLR,,0.00,WeatherDisplay:10.37,2013-05-15 12:52:00,
2013-05-15 08:57:00,64.9,56.8,30.06,SSW,207,5.8,5.8,75,0.00,CLR,,0.00,WeatherDisplay:10.37,2013-05-15 12:57:00,
2013-05-15 09:02:00,65.1,56.6,30.06,WSW,244,9.2,9.2,74,0.00,CLR,,0.00,WeatherDisplay:10.37,2013-05-15 13:02:00,
2013-05-15 09:07:00,65.3,57.2,30.06,WSW,246,9.2,9.2,75,0.00,CLR,,0.00,WeatherDisplay:10.37,2013-05-15 13:07:00,
2013-05-15 09:12:00,65.6,57.5,30.06,WSW,253,9.2,9.2,75,0.00,CLR,,0.00,WeatherDisplay:10.37,2013-05-15 13:12:00,
2013-05-15 09:17:00,66.0,58.2,30.06,WSW,238,6.9,6.9,76,0.00,CLR,,0.00,WeatherDisplay:10.37,2013-05-15 13:17:00,
2013-05-15 09:22:00,66.5,58.0,30.06,WSW,245,6.9,6.9,74,0.00,CLR,,0.00,WeatherDisplay:10.37,2013-05-15 13:22:00,
2013-05-15 09:27:00,67.1,58.2,30.06,WSW,244,9.2,9.2,73,0.00,CLR,,0.00,WeatherDisplay:10.37,2013-05-15 13:27:00,
2013-05-15 09:32:00,67.6,58.2,30.06,SW,233,5.8,5.8,72,0.00,CLR,,0.00,WeatherDisplay:10.37,2013-05-15 13:32:00,
2013-05-15 09:38:00,68.1,58.7,30.06,WSW,240,11.5,11.5,72,0.00,CLR,,0.00,WeatherDisplay:10.37,2013-05-15 13:38:00,
2013-05-15 09:43:00,68.5,58.7,30.06,SW,215,10.0,10.0,71,0.00,CLR,,0.00,WeatherDisplay:10.37,2013-05-15 13:43:00,
2013-05-15 09:48:00,69.0,58.4,30.06,WSW,253,10.4,10.4,69,0.00,CLR,,0.00,WeatherDisplay:10.37,2013-05-15 13:48:00,
2013-05-15 09:53:00,69.4,59.2,30.06,SW,214,6.9,6.9,70,0.00,CLR,,0.00,WeatherDisplay:10.37,2013-05-15 13:53:00,
2013-05-15 09:59:00,70.0,60.2,30.06,WSW,246,6.9,6.9,71,0.00,CLR,,0.00,WeatherDisplay:10.37,2013-05-15 13:59:00,
2013-05-15 10:04:00,70.7,60.8,30.06,WSW,246,7.0,7.0,71,0.00,CLR,,0.00,WeatherDisplay:10.37,2013-05-15 14:04:00,
2013-05-15 10:09:00,71.2,60.1,30.06,WSW,249,10.4,10.4,68,0.00,CLR,,0.00,WeatherDisplay:10.37,2013-05-15 14:09:00,
2013-05-15 10:14:00,71.5,60.4,30.06,WSW,252,7.0,7.0,68,0.00,CLR,,0.00,WeatherDisplay:10.37,2013-05-15 14:14:00,
2013-05-15 10:19:00,71.8,59.8,30.05,WSW,238,12.7,12.7,66,0.00,CLR,,0.00,WeatherDisplay:10.37,2013-05-15 14:19:00,
2013-05-15 10:24:00,72.2,61.0,30.06,WSW,241,6.9,6.9,68,0.00,CLR,,0.00,WeatherDisplay:10.37,2013-05-15 14:24:00,
2013-05-15 10:29:00,72.7,60.7,30.05,West,269,10.4,10.4,66,0.00,CLR,,0.00,WeatherDisplay:10.37,2013-05-15 14:29:00,
2013-05-15 10:35:00,73.3,62.1,30.05,SW,225,6.9,6.9,68,0.00,CLR,,0.00,WeatherDisplay:10.37,2013-05-15 14:35:00,
2013-05-15 10:40:00,73.8,61.7,30.06,WSW,241,10.4,10.4,66,0.00,CLR,,0.00,WeatherDisplay:10.37,2013-05-15 14:40:00,
2013-05-15 10:45:00,74.2,62.1,30.05,West,267,11.5,11.5,66,0.00,CLR,,0.00,WeatherDisplay:10.37,2013-05-15 14:45:00,
2013-05-15 10:50:00,74.6,61.6,30.05,SW,225,11.5,11.5,64,0.00,CLR,,0.00,WeatherDisplay:10.37,2013-05-15 14:50:00,
2013-05-15 10:56:00,75.3,60.9,30.05,WNW,286,9.2,9.2,61,0.00,CLR,,0.00,WeatherDisplay:10.37,2013-05-15 14:56:00,
2013-05-15 11:01:00,75.8,63.6,30.05,SW,235,9.0,9.0,66,0.00,CLR,,0.00,WeatherDisplay:10.37,2013-05-15 15:01:00,
2013-05-15 11:06:00,76.2,63.6,30.05,West,259,4.6,4.6,65,0.00,CLR,,0.00,WeatherDisplay:10.37,2013-05-15 15:06:00,
2013-05-15 11:12:00,76.8,62.3,30.05,SW,226,8.1,8.1,61,0.00,CLR,,0.00,WeatherDisplay:10.37,2013-05-15 15:12:00,
2013-05-15 11:17:00,77.1,62.6,30.05,WSW,237,5.8,5.8,61,0.00,CLR,,0.00,WeatherDisplay:10.37,2013-05-15 15:17:00,
2013-05-15 11:22:00,77.7,63.6,30.05,SW,227,3.5,3.5,62,0.00,CLR,,0.00,WeatherDisplay:10.37,2013-05-15 15:22:00,
2013-05-15 11:27:00,78.1,63.1,30.05,SW,232,5.8,5.8,60,0.00,CLR,,0.00,WeatherDisplay:10.37,2013-05-15 15:27:00,
2013-05-15 11:32:00,78.7,62.2,30.05,SW,223,6.9,6.9,57,0.00,CLR,,0.00,WeatherDisplay:10.37,2013-05-15 15:32:00,
2013-05-15 11:37:00,78.9,62.9,30.04,WSW,252,6.9,6.9,58,0.00,CLR,,0.00,WeatherDisplay:10.37,2013-05-15 15:37:00,
2013-05-15 11:43:00,79.1,62.1,30.04,WSW,237,8.1,8.1,56,0.00,CLR,,0.00,WeatherDisplay:10.37,2013-05-15 15:43:00,
2013-05-15 11:48:00,79.3,63.7,30.04,WSW,245,6.9,6.9,59,0.00,CLR,,0.00,WeatherDisplay:10.37,2013-05-15 15:48:00,
2013-05-15 11:53:00,79.5,62.9,30.04,SW,236,10.4,10.4,57,0.00,CLR,,0.00,WeatherDisplay:10.37,2013-05-15 15:53:00,
2013-05-15 11:58:00,79.6,63.5,30.04,WSW,256,10.4,10.4,58,0.00,CLR,,0.00,WeatherDisplay:10.37,2013-05-15 15:58:00,
2013-05-15 12:03:00,79.9,62.8,30.03,SW,219,9.0,9.0,56,0.00,CLR,,0.00,WeatherDisplay:10.37,2013-05-15 16:03:00,
2013-05-15 12:09:00,80.4,64.8,30.03,West,260,6.9,6.9,59,0.00,CLR,,0.00,WeatherDisplay:10.37,2013-05-15 16:09:00,
2013-05-15 12:14:00,80.6,64.9,30.03,West,261,3.5,3.5,59,0.00,CLR,,0.00,WeatherDisplay:10.37,2013-05-15 16:14:00,
2013-05-15 12:19:00,81.0,62.8,30.03,SSE,160,3.5,3.5,54,0.00,CLR,,0.00,WeatherDisplay:10.37,2013-05-15 16:19:00,
2013-05-15 12:25:00,81.5,63.8,30.03,SW,232,6.9,6.9,55,0.00,CLR,,0.00,WeatherDisplay:10.37,2013-05-15 16:25:00,
2013-05-15 12:30:00,81.9,65.7,30.02,WSW,252,1.0,1.0,58,0.00,CLR,,0.00,WeatherDisplay:10.37,2013-05-15 16:30:00,
2013-05-15 12:36:00,82.1,64.3,30.02,WSW,244,9.2,9.2,55,0.00,CLR,,0.00,WeatherDisplay:10.37,2013-05-15 16:36:00,
2013-05-15 12:41:00,82.2,64.4,30.02,WSW,253,9.2,9.2,55,0.00,CLR,,0.00,WeatherDisplay:10.37,2013-05-15 16:41:00,
2013-05-15 12:46:00,82.4,64.6,30.02,SSW,208,11.5,11.5,55,0.00,CLR,,0.00,WeatherDisplay:10.37,2013-05-15 16:46:00,
2013-05-15 12:51:00,82.3,63.5,30.02,West,260,6.9,6.9,53,0.00,CLR,,0.00,WeatherDisplay:10.37,2013-05-15 16:51:00,
2013-05-15 12:57:00,82.3,63.5,30.01,SW,232,9.2,9.2,53,0.00,CLR,,0.00,WeatherDisplay:10.37,2013-05-15 16:57:00,
2013-05-15 13:02:00,82.8,65.5,30.01,SW,234,6.9,6.9,56,0.00,CLR,,0.00,WeatherDisplay:10.37,2013-05-15 17:02:00,
2013-05-15 13:07:00,82.9,66.6,30.01,WSW,256,7.0,7.0,58,0.00,CLR,,0.00,WeatherDisplay:10.37,2013-05-15 17:07:00,
2013-05-15 13:13:00,82.9,65.1,30.01,West,262,9.2,9.2,55,0.00,CLR,,0.00,WeatherDisplay:10.37,2013-05-15 17:13:00,
2013-05-15 13:18:00,83.2,64.3,30.01,WSW,249,10.4,10.4,53,0.00,CLR,,0.00,WeatherDisplay:10.37,2013-05-15 17:18:00,
2013-05-15 13:23:00,83.4,63.9,30.00,WSW,257,8.1,8.1,52,0.00,CLR,,0.00,WeatherDisplay:10.37,2013-05-15 17:23:00,
2013-05-15 13:29:00,83.4,63.4,30.00,WSW,244,3.5,3.5,51,0.00,CLR,,0.00,WeatherDisplay:10.37,2013-05-15 17:29:00,
2013-05-15 13:34:00,83.6,65.2,30.00,WSW,244,12.7,12.7,54,0.00,CLR,,0.00,WeatherDisplay:10.37,2013-05-15 17:34:00,
2013-05-15 13:39:00,83.8,65.4,29.99,WSW,240,5.0,5.0,54,0.00,CLR,,0.00,WeatherDisplay:10.37,2013-05-15 17:39:00,
2013-05-15 13:44:00,83.9,65.5,29.99,South,182,4.6,4.6,54,0.00,CLR,,0.00,WeatherDisplay:10.37,2013-05-15 17:44:00,
2013-05-15 13:49:00,84.2,66.8,29.99,WNW,296,9.2,9.2,56,0.00,CLR,,0.00,WeatherDisplay:10.37,2013-05-15 17:49:00,
2013-05-15 13:55:00,84.3,65.8,29.99,SW,234,11.5,11.5,54,0.00,CLR,,0.00,WeatherDisplay:10.37,2013-05-15 17:55:00,
2013-05-15 14:00:00,84.4,64.9,29.99,South,183,4.6,4.6,52,0.00,CLR,,0.00,WeatherDisplay:10.37,2013-05-15 18:00:00,
2013-05-15 14:06:00,84.7,65.7,29.98,SW,227,11.5,11.5,53,0.00,CLR,,0.00,WeatherDisplay:10.37,2013-05-15 18:06:00,
2013-05-15 14:11:00,85.0,66.5,29.98,West,277,6.9,6.9,54,0.00,CLR,,0.00,WeatherDisplay:10.37,2013-05-15 18:11:00,
2013-05-15 14:16:00,85.2,66.1,29.98,West,259,11.0,11.0,53,0.00,CLR,,0.00,WeatherDisplay:10.37,2013-05-15 18:16:00,
2013-05-15 14:21:00,85.3,66.2,29.98,WSW,238,6.9,6.9,53,0.00,CLR,,0.00,WeatherDisplay:10.37,2013-05-15 18:21:00,
2013-05-15 14:27:00,85.3,66.2,29.97,SW,229,4.6,4.6,53,0.00,CLR,,0.00,WeatherDisplay:10.37,2013-05-15 18:27:00,
2013-05-15 14:32:00,85.4,65.8,29.97,West,268,9.2,9.2,52,0.00,CLR,,0.00,WeatherDisplay:10.37,2013-05-15 18:32:00,
2013-05-15 14:37:00,85.5,65.9,29.97,WSW,237,11.5,11.5,52,0.00,CLR,,0.00,WeatherDisplay:10.37,2013-05-15 18:37:00,
2013-05-15 14:43:00,85.6,65.4,29.97,SW,215,8.1,8.1,51,0.00,CLR,,0.00,WeatherDisplay:10.37,2013-05-15 18:43:00,
2013-05-15 14:48:00,85.8,65.6,29.97,WSW,247,8.0,8.0,51,0.00,CLR,,0.00,WeatherDisplay:10.37,2013-05-15 18:48:00,
2013-05-15 14:53:00,86.0,68.0,29.97,SW,222,8.0,8.0,55,0.00,CLR,,0.00,WeatherDisplay:10.37,2013-05-15 18:53:00,
2013-05-15 14:59:00,86.3,66.6,29.97,SW,218,11.5,11.5,52,0.00,CLR,,0.00,WeatherDisplay:10.37,2013-05-15 18:59:00,
2013-05-15 15:04:00,86.4,67.2,29.97,WSW,247,11.5,11.5,53,0.00,CLR,,0.00,WeatherDisplay:10.37,2013-05-15 19:04:00,
2013-05-15 15:09:00,86.3,65.5,29.97,WSW,257,9.2,9.2,50,0.00,CLR,,0.00,WeatherDisplay:10.37,2013-05-15 19:09:00,
2013-05-15 15:15:00,86.4,66.7,29.97,SW,215,10.4,10.4,52,0.00,CLR,,0.00,WeatherDisplay:10.37,2013-05-15 19:15:00,
2013-05-15 15:20:00,86.3,65.5,29.96,WSW,240,9.2,9.6,50,0.00,CLR,,0.00,WeatherDisplay:10.37,2013-05-15 19:20:00,
2013-05-15 15:25:00,86.2,66.5,29.96,SW,233,10.4,10.4,52,0.00,CLR,,0.00,WeatherDisplay:10.37,2013-05-15 19:25:00,
2013-05-15 15:30:00,86.1,64.7,29.96,WSW,254,10.4,10.4,49,0.00,CLR,,0.00,WeatherDisplay:10.37,2013-05-15 19:30:00,
2013-05-15 15:36:00,86.1,65.3,29.96,SW,220,9.2,9.2,50,0.00,CLR,,0.00,WeatherDisplay:10.37,2013-05-15 19:36:00,
2013-05-15 15:41:00,86.3,66.0,29.95,SW,232,9.2,9.2,51,0.00,CLR,,0.00,WeatherDisplay:10.37,2013-05-15 19:41:00,
2013-05-15 15:46:00,86.5,65.7,29.95,WSW,252,5.8,5.8,50,0.00,CLR,,0.00,WeatherDisplay:10.37,2013-05-15 19:46:00,
2013-05-15 15:52:00,86.7,66.4,29.95,West,259,10.0,10.0,51,0.00,CLR,,0.00,WeatherDisplay:10.37,2013-05-15 19:52:00,
2013-05-15 15:57:00,87.0,67.2,29.94,WSW,248,10.0,10.0,52,0.00,CLR,,0.00,WeatherDisplay:10.37,2013-05-15 19:57:00,
2013-05-15 16:03:00,87.0,66.1,29.94,SSW,213,10.4,10.4,50,0.00,CLR,,0.00,WeatherDisplay:10.37,2013-05-15 20:03:00,
2013-05-15 16:08:00,87.1,65.0,29.94,WSW,237,11.5,11.5,48,0.00,CLR,,0.00,WeatherDisplay:10.37,2013-05-15 20:08:00,
2013-05-15 16:13:00,87.1,66.8,29.94,West,261,6.9,6.9,51,0.00,CLR,,0.00,WeatherDisplay:10.37,2013-05-15 20:13:00,
2013-05-15 16:19:00,87.2,66.9,29.93,WSW,250,5.8,5.8,51,0.00,CLR,,0.00,WeatherDisplay:10.37,2013-05-15 20:19:00,
2013-05-15 16:24:00,87.3,66.4,29.93,WSW,241,15.0,15.0,50,0.00,CLR,,0.00,WeatherDisplay:10.37,2013-05-15 20:24:00,
2013-05-15 16:29:00,87.3,67.0,29.93,WSW,244,10.4,10.4,51,0.00,CLR,,0.00,WeatherDisplay:10.37,2013-05-15 20:29:00,
2013-05-15 16:35:00,87.3,65.8,29.93,West,263,10.4,10.4,49,0.00,CLR,,0.00,WeatherDisplay:10.37,2013-05-15 20:35:00,
2013-05-15 16:40:00,87.2,66.3,29.93,West,267,11.5,11.5,50,0.00,CLR,,0.00,WeatherDisplay:10.37,2013-05-15 20:40:00,
2013-05-15 16:45:00,87.1,65.6,29.93,SW,236,17.0,17.0,49,0.00,CLR,,0.00,WeatherDisplay:10.37,2013-05-15 20:45:00,
2013-05-15 16:51:00,87.0,64.9,29.92,SW,226,11.5,11.5,48,0.00,CLR,,0.00,WeatherDisplay:10.37,2013-05-15 20:51:00,
2013-05-15 16:56:00,87.1,65.6,29.92,West,264,10.4,10.4,49,0.00,CLR,,0.00,WeatherDisplay:10.37,2013-05-15 20:56:00,
2013-05-15 17:01:00,87.1,65.6,29.92,West,261,5.8,5.8,49,0.00,CLR,,0.00,WeatherDisplay:10.37,2013-05-15 21:01:00,
2013-05-15 17:06:00,87.2,65.7,29.92,SE,142,5.8,5.8,49,0.00,CLR,,0.00,WeatherDisplay:10.37,2013-05-15 21:06:00,
2013-05-15 17:11:00,87.2,65.1,29.92,WSW,253,10.4,10.4,48,0.00,CLR,,0.00,WeatherDisplay:10.37,2013-05-15 21:11:00,
2013-05-15 17:16:00,87.1,65.6,29.92,WSW,238,18.4,18.4,49,0.00,CLR,,0.00,WeatherDisplay:10.37,2013-05-15 21:16:00,
2013-05-15 17:21:00,86.7,65.8,29.92,WSW,251,12.7,12.7,50,0.00,CLR,,0.00,WeatherDisplay:10.37,2013-05-15 21:21:00,
2013-05-15 17:26:00,86.4,65.6,29.92,WSW,248,11.5,11.5,50,0.00,CLR,,0.00,WeatherDisplay:10.37,2013-05-15 21:26:00,
2013-05-15 17:31:00,86.3,65.5,29.92,South,190,11.5,11.5,50,0.00,CLR,,0.00,WeatherDisplay:10.37,2013-05-15 21:31:00,
2013-05-15 17:37:00,86.3,64.9,29.92,West,275,11.5,11.5,49,0.00,CLR,,0.00,WeatherDisplay:10.37,2013-05-15 21:37:00,
2013-05-15 17:42:00,86.2,64.2,29.92,WSW,253,12.7,12.7,48,0.00,CLR,,0.00,WeatherDisplay:10.37,2013-05-15 21:42:00,
2013-05-15 17:47:00,86.1,64.1,29.92,West,273,11.5,11.5,48,0.00,CLR,,0.00,WeatherDisplay:10.37,2013-05-15 21:47:00,
2013-05-15 17:52:00,86.0,64.0,29.92,SSW,198,15.0,15.0,48,0.00,CLR,,0.00,WeatherDisplay:10.37,2013-05-15 21:52:00,
2013-05-15 17:57:00,85.9,65.1,29.92,WSW,248,11.5,11.5,50,0.00,CLR,,0.00,WeatherDisplay:10.37,2013-05-15 21:57:00,
2013-05-15 18:03:00,85.9,64.5,29.92,SW,233,13.8,13.8,49,0.00,CLR,,0.00,WeatherDisplay:10.37,2013-05-15 22:03:00,
2013-05-15 18:08:00,85.9,64.5,29.92,SW,229,11.0,11.0,49,0.00,CLR,,0.00,WeatherDisplay:10.37,2013-05-15 22:08:00,
2013-05-15 18:13:00,85.8,64.4,29.92,East,96,11.5,11.5,49,0.00,CLR,,0.00,WeatherDisplay:10.37,2013-05-15 22:13:00,
2013-05-15 18:19:00,85.6,64.8,29.91,WSW,257,11.5,11.5,50,0.00,CLR,,0.00,WeatherDisplay:10.37,2013-05-15 22:19:00,
2013-05-15 18:24:00,85.4,64.6,29.92,WSW,253,12.7,12.7,50,0.00,CLR,,0.00,WeatherDisplay:10.37,2013-05-15 22:24:00,
2013-05-15 18:29:00,85.3,64.6,29.92,WSW,245,13.8,13.8,50,0.00,CLR,,0.00,WeatherDisplay:10.37,2013-05-15 22:29:00,
2013-05-15 18:34:00,85.1,64.4,29.91,WSW,242,6.9,6.9,50,0.00,CLR,,0.00,WeatherDisplay:10.37,2013-05-15 22:34:00,
2013-05-15 18:39:00,84.9,64.8,29.91,WSW,252,10.4,10.4,51,0.00,CLR,,0.00,WeatherDisplay:10.37,2013-05-15 22:39:00,
2013-05-15 18:45:00,84.8,64.7,29.92,SSW,211,10.4,10.4,51,0.00,CLR,,0.00,WeatherDisplay:10.37,2013-05-15 22:45:00,
2013-05-15 18:50:00,84.7,64.0,29.92,SW,236,11.5,11.5,50,0.00,CLR,,0.00,WeatherDisplay:10.37,2013-05-15 22:50:00,
2013-05-15 18:55:00,84.6,65.0,29.91,SW,233,5.8,5.8,52,0.00,CLR,,0.00,WeatherDisplay:10.37,2013-05-15 22:55:00,
2013-05-15 19:00:00,84.4,64.9,29.91,WSW,241,6.9,6.9,52,0.00,CLR,,0.00,WeatherDisplay:10.37,2013-05-15 23:00:00,
2013-05-15 19:06:00,84.2,64.1,29.91,WSW,237,9.2,9.2,51,0.00,CLR,,0.00,WeatherDisplay:10.37,2013-05-15 23:06:00,
2013-05-15 19:11:00,84.0,64.5,29.91,SW,234,13.8,13.8,52,0.00,CLR,,0.00,WeatherDisplay:10.37,2013-05-15 23:11:00,
2013-05-15 19:16:00,83.8,64.3,29.91,WSW,243,10.4,10.4,52,0.00,CLR,,0.00,WeatherDisplay:10.37,2013-05-15 23:16:00,
2013-05-15 19:21:00,83.5,64.6,29.91,WSW,248,10.4,10.4,53,0.00,CLR,,0.00,WeatherDisplay:10.37,2013-05-15 23:21:00,
2013-05-15 19:26:00,83.2,64.3,29.91,WSW,237,9.2,9.2,53,0.00,CLR,,0.00,WeatherDisplay:10.37,2013-05-15 23:26:00,
2013-05-15 19:31:00,82.9,64.0,29.92,SW,214,11.5,11.5,53,0.00,CLR,,0.00,WeatherDisplay:10.37,2013-05-15 23:31:00,
2013-05-15 19:37:00,82.7,63.8,29.92,WSW,248,6.9,6.9,53,0.00,CLR,,0.00,WeatherDisplay:10.37,2013-05-15 23:37:00,
2013-05-15 19:42:00,82.4,64.1,29.92,WSW,255,10.4,10.4,54,0.00,CLR,,0.00,WeatherDisplay:10.37,2013-05-15 23:42:00,
2013-05-15 19:48:00,82.2,63.9,29.92,WSW,244,10.4,10.4,54,0.00,CLR,,0.00,WeatherDisplay:10.37,2013-05-15 23:48:00,
2013-05-15 19:53:00,81.9,63.6,29.92,WSW,248,4.6,4.6,54,0.00,CLR,,0.00,WeatherDisplay:10.37,2013-05-15 23:53:00,
2013-05-15 19:58:00,81.7,64.0,29.92,WSW,238,3.5,3.5,55,0.00,CLR,,0.00,WeatherDisplay:10.37,2013-05-15 23:58:00,
2013-05-15 20:03:00,81.5,63.8,29.92,SW,236,2.3,2.3,55,0.00,CLR,,0.00,WeatherDisplay:10.37,2013-05-16 00:03:00,
2013-05-15 20:08:00,81.1,63.4,29.92,SSW,207,1.2,0.0,55,0.00,CLR,,0.00,WeatherDisplay:10.37,2013-05-16 00:08:00,
2013-05-15 20:15:00,80.9,63.7,29.92,SSW,206,0.0,0.0,56,0.00,CLR,,0.00,WeatherDisplay:10.37,2013-05-16 00:15:00,
2013-05-15 20:20:00,80.5,63.4,29.92,West,265,3.5,3.5,56,0.00,CLR,,0.00,WeatherDisplay:10.37,2013-05-16 00:20:00,
2013-05-15 20:25:00,80.1,63.5,29.92,SW,234,0.0,0.0,57,0.00,CLR,,0.00,WeatherDisplay:10.37,2013-05-16 00:25:00,
2013-05-15 20:30:00,79.7,63.1,29.92,SW,234,0.0,0.0,57,0.00,CLR,,0.00,WeatherDisplay:10.37,2013-05-16 00:30:00,
2013-05-15 20:35:00,79.4,63.3,29.92,SW,234,0.0,0.0,58,0.00,CLR,,0.00,WeatherDisplay:10.37,2013-05-16 00:35:00,
2013-05-15 20:40:00,79.1,63.1,29.92,SW,234,0.0,0.0,58,0.00,CLR,,0.00,WeatherDisplay:10.37,2013-05-16 00:40:00,
2013-05-15 20:46:00,78.7,62.7,29.92,SW,235,0.0,0.0,58,0.00,CLR,,0.00,WeatherDisplay:10.37,2013-05-16 00:46:00,
2013-05-15 20:51:00,78.4,62.9,29.92,SW,235,0.0,0.0,59,0.00,CLR,,0.00,WeatherDisplay:10.37,2013-05-16 00:51:00,
2013-05-15 20:56:00,78.0,63.0,29.93,SW,235,0.0,0.0,60,0.00,CLR,,0.00,WeatherDisplay:10.37,2013-05-16 00:56:00,
2013-05-15 21:01:00,77.7,63.2,29.92,SW,235,0.0,0.0,61,0.00,CLR,,0.00,WeatherDisplay:10.37,2013-05-16 01:01:00,
2013-05-15 21:06:00,77.4,62.4,29.92,SW,235,0.0,0.0,60,0.00,CLR,,0.00,WeatherDisplay:10.37,2013-05-16 01:06:00,
2013-05-15 21:11:00,77.1,62.6,29.93,SW,235,0.0,0.0,61,0.00,CLR,,0.00,WeatherDisplay:10.37,2013-05-16 01:11:00,
2013-05-15 21:18:00,76.7,62.7,29.93,SW,235,0.0,0.0,62,0.00,CLR,,0.00,WeatherDisplay:10.37,2013-05-16 01:18:00,
2013-05-15 21:23:00,76.4,62.4,29.93,SW,235,3.0,3.0,62,0.00,CLR,,0.00,WeatherDisplay:10.37,2013-05-16 01:23:00,
2013-05-15 21:28:00,76.2,62.7,29.93,SW,235,0.0,0.0,63,0.00,CLR,,0.00,WeatherDisplay:10.37,2013-05-16 01:28:00,
2013-05-15 21:33:00,76.0,62.5,29.93,SW,235,4.0,4.0,63,0.00,CLR,,0.00,WeatherDisplay:10.37,2013-05-16 01:33:00,
2013-05-15 21:38:00,75.8,62.3,29.93,SW,234,0.0,0.0,63,0.00,CLR,,0.00,WeatherDisplay:10.37,2013-05-16 01:38:00,
2013-05-15 21:43:00,75.7,62.7,29.94,SW,235,3.0,3.0,64,0.00,CLR,,0.00,WeatherDisplay:10.37,2013-05-16 01:43:00,
2013-05-15 21:48:00,75.6,62.6,29.94,SW,235,0.0,0.0,64,0.00,CLR,,0.00,WeatherDisplay:10.37,2013-05-16 01:48:00,
2013-05-15 21:53:00,75.5,62.9,29.94,SW,234,0.0,0.0,65,0.00,CLR,,0.00,WeatherDisplay:10.37,2013-05-16 01:53:00,
2013-05-15 21:59:00,75.2,62.6,29.94,SW,234,0.0,0.0,65,0.00,CLR,,0.00,WeatherDisplay:10.37,2013-05-16 01:59:00,
2013-05-15 22:04:00,74.9,62.8,29.94,SW,235,0.0,0.0,66,0.00,CLR,,0.00,WeatherDisplay:10.37,2013-05-16 02:04:00,
2013-05-15 22:09:00,74.6,62.5,29.94,SW,235,0.0,0.0,66,0.00,CLR,,0.00,WeatherDisplay:10.37,2013-05-16 02:09:00,
2013-05-15 22:14:00,74.4,62.3,29.94,SW,235,0.0,0.0,66,0.00,CLR,,0.00,WeatherDisplay:10.37,2013-05-16 02:14:00,
2013-05-15 22:20:00,74.1,62.4,29.94,SW,235,0.0,0.0,67,0.00,CLR,,0.00,WeatherDisplay:10.37,2013-05-16 02:20:00,
2013-05-15 22:25:00,73.8,62.2,29.94,SW,234,0.0,0.0,67,0.00,CLR,,0.00,WeatherDisplay:10.37,2013-05-16 02:25:00,
2013-05-15 22:30:00,73.6,62.4,29.94,SW,234,0.0,0.0,68,0.00,CLR,,0.00,WeatherDisplay:10.37,2013-05-16 02:30:00,
2013-05-15 22:35:00,73.3,62.1,29.94,SW,235,0.0,0.0,68,0.00,CLR,,0.00,WeatherDisplay:10.37,2013-05-16 02:35:00,
2013-05-15 22:41:00,73.1,62.3,29.94,SW,235,0.0,0.0,69,0.00,CLR,,0.00,WeatherDisplay:10.37,2013-05-16 02:41:00,
2013-05-15 22:47:00,72.8,62.4,29.94,SW,235,0.0,0.0,70,0.00,CLR,,0.00,WeatherDisplay:10.37,2013-05-16 02:47:00,
2013-05-15 22:52:00,72.7,62.3,29.94,SW,235,0.0,0.0,70,0.00,CLR,,0.00,WeatherDisplay:10.37,2013-05-16 02:52:00,
2013-05-15 22:58:00,72.5,62.2,29.94,SW,235,0.0,0.0,70,0.00,CLR,,0.00,WeatherDisplay:10.37,2013-05-16 02:58:00,
2013-05-15 23:03:00,72.3,62.0,29.94,SW,235,0.0,0.0,70,0.00,CLR,,0.00,WeatherDisplay:10.37,2013-05-16 03:03:00,
2013-05-15 23:08:00,72.1,62.2,29.93,SW,235,0.0,0.0,71,0.00,CLR,,0.00,WeatherDisplay:10.37,2013-05-16 03:08:00,
2013-05-15 23:14:00,72.0,62.1,29.93,SW,235,0.0,0.0,71,0.00,CLR,,0.00,WeatherDisplay:10.37,2013-05-16 03:14:00,
2013-05-15 23:19:00,71.8,61.9,29.93,SW,234,0.0,0.0,71,0.00,CLR,,0.00,WeatherDisplay:10.37,2013-05-16 03:19:00,
2013-05-15 23:24:00,71.7,62.2,29.93,SW,235,2.3,2.3,72,0.00,CLR,,0.00,WeatherDisplay:10.37,2013-05-16 03:24:00,
2013-05-15 23:29:00,71.7,62.2,29.93,SW,233,0.0,0.0,72,0.00,CLR,,0.00,WeatherDisplay:10.37,2013-05-16 03:29:00,
2013-05-15 23:35:00,71.7,62.2,29.93,SW,221,1.2,0.0,72,0.00,CLR,,0.00,WeatherDisplay:10.37,2013-05-16 03:35:00,
2013-05-15 23:40:00,71.7,61.8,29.93,SW,223,3.5,3.5,71,0.00,CLR,,0.00,WeatherDisplay:10.37,2013-05-16 03:40:00,
2013-05-15 23:45:00,71.8,61.9,29.93,SW,224,3.5,3.5,71,0.00,CLR,,0.00,WeatherDisplay:10.37,2013-05-16 03:45:00,
2013-05-15 23:50:00,71.8,61.9,29.93,SW,224,0.0,0.0,71,0.00,CLR,,0.00,WeatherDisplay:10.37,2013-05-16 03:50:00,
2013-05-15 23:55:00,71.8,61.9,29.93,SW,223,0.0,0.0,71,0.00,CLR,,0.00,WeatherDisplay:10.37,2013-05-16 03:55:00,